Time;durP1;ratioP1;P1;durP2;ratioP2;P2;SDS_P1;SDS_P2;PMS_P1;PMS_P2;Temp;Humidity;BMP_temperature;BMP_pressure;BME280_temperature;BME280_humidity;BME280_pressure;Samples;Min_cycle;Max_cycle;Signal;HPM_P1;HPM_P2
2022/09/02 00:00:53;;;;;;;1.77;1.20;;;15.70;99.90;;;;;;5056602;28;20080;-75
2022/09/02 00:03:19;;;;;;;4.22;1.00;;;15.60;99.90;;;;;;5029578;28;20049;-75
2022/09/02 00:05:45;;;;;;;3.55;1.17;;;15.50;99.90;;;;;;5046255;28;20345;-76
2022/09/02 00:08:11;;;;;;;4.60;1.27;;;15.50;99.90;;;;;;5043747;28;20044;-75
2022/09/02 00:10:40;;;;;;;3.35;1.20;;;15.40;99.90;;;;;;5063379;28;20049;-75
2022/09/02 00:13:08;;;;;;;4.43;1.10;;;15.40;99.90;;;;;;5040093;28;20041;-75
2022/09/02 00:15:34;;;;;;;1.33;1.08;;;15.40;99.90;;;;;;5065038;28;20313;-75
2022/09/02 00:18:00;;;;;;;1.17;1.08;;;15.30;99.90;;;;;;5042153;28;20059;-74
2022/09/02 00:20:28;;;;;;;1.70;1.10;;;15.30;99.90;;;;;;5047376;28;20047;-75
2022/09/02 00:22:54;;;;;;;2.80;1.10;;;15.30;99.90;;;;;;5063796;28;20141;-75
2022/09/02 00:25:20;;;;;;;1.60;1.00;;;15.20;99.90;;;;;;5047213;28;20052;-74
2022/09/02 00:27:46;;;;;;;2.47;1.25;;;15.10;99.90;;;;;;5042487;28;20425;-76
2022/09/02 00:30:12;;;;;;;4.68;1.30;;;15.20;99.90;;;;;;5057115;28;20032;-75
2022/09/02 00:32:38;;;;;;;3.05;1.10;;;15.10;99.90;;;;;;5025424;28;20129;-75
2022/09/02 00:35:05;;;;;;;5.65;1.20;;;15.10;99.90;;;;;;5025878;28;20491;-75
2022/09/02 00:37:30;;;;;;;2.83;1.15;;;15.10;99.90;;;;;;5026946;28;20124;-76
2022/09/02 00:39:56;;;;;;;1.98;1.10;;;15.00;99.90;;;;;;5018302;28;20131;-76
2022/09/02 00:42:24;;;;;;;2.92;1.20;;;14.90;99.90;;;;;;5022056;28;20040;-76
2022/09/02 00:44:49;;;;;;;1.90;1.15;;;14.90;99.90;;;;;;5025352;28;20045;-75
2022/09/02 00:47:15;;;;;;;1.98;1.27;;;14.90;99.90;;;;;;5023396;28;20048;-75
2022/09/02 00:49:46;;;;;;;3.42;1.40;;;14.80;99.90;;;;;;5053698;28;20053;-75
2022/09/02 00:52:17;;;;;;;4.95;1.58;;;14.80;99.90;;;;;;5056822;28;20438;-75
2022/09/02 00:55:09;;;;;;;1.95;1.50;;;14.80;99.90;;;;;;5043446;28;20048;-76
2022/09/02 00:57:55;;;;;;;5.00;1.95;;;14.70;99.90;;;;;;4982484;28;20062;-76
2022/09/02 01:00:32;;;;;;;6.82;1.70;;;14.60;99.90;;;;;;4956886;28;20422;-76
2022/09/02 01:03:01;;;;;;;3.53;2.00;;;14.60;99.90;;;;;;4950554;28;20057;-76
2022/09/02 01:05:30;;;;;;;2.35;1.60;;;14.60;99.90;;;;;;4983497;28;20101;-77
2022/09/02 01:07:58;;;;;;;4.53;2.03;;;14.60;99.90;;;;;;4980463;28;20161;-76
2022/09/02 01:10:28;;;;;;;3.22;1.90;;;14.60;99.90;;;;;;4966872;28;20065;-75
2022/09/02 01:12:59;;;;;;;7.28;1.98;;;14.50;99.90;;;;;;4969587;28;20054;-76
2022/09/02 01:15:26;;;;;;;2.97;1.92;;;14.50;99.90;;;;;;4978019;28;20412;-76
2022/09/02 01:17:52;;;;;;;4.43;2.00;;;14.40;99.90;;;;;;4965409;28;20061;-74
2022/09/02 01:20:22;;;;;;;5.75;1.80;;;14.40;99.90;;;;;;4982360;28;20212;-75
2022/09/02 01:22:48;;;;;;;2.10;1.70;;;14.40;99.90;;;;;;4984298;28;21134;-74
2022/09/02 01:25:19;;;;;;;4.22;1.73;;;14.30;99.90;;;;;;4991505;28;20046;-75
2022/09/02 01:27:46;;;;;;;3.22;1.35;;;14.30;99.90;;;;;;4980764;28;20046;-75
2022/09/02 01:30:17;;;;;;;6.60;1.40;;;14.30;99.90;;;;;;4972806;28;20501;-74
2022/09/02 01:32:43;;;;;;;3.58;1.83;;;14.30;99.90;;;;;;4983680;28;20049;-75
2022/09/02 01:35:09;;;;;;;4.03;1.40;;;14.30;99.90;;;;;;5014280;28;20040;-74
2022/09/02 01:37:38;;;;;;;3.08;1.58;;;14.30;99.90;;;;;;5027142;28;20071;-76
2022/09/02 01:40:09;;;;;;;2.25;1.55;;;14.40;99.90;;;;;;5059489;28;20521;-75
2022/09/02 01:42:36;;;;;;;3.42;1.70;;;14.30;99.90;;;;;;5044502;28;20391;-75
2022/09/02 01:45:03;;;;;;;3.70;1.42;;;14.30;99.90;;;;;;5032672;28;20485;-75
2022/09/02 01:47:29;;;;;;;3.65;1.38;;;14.30;99.90;;;;;;5065340;28;20068;-74
2022/09/02 01:49:55;;;;;;;4.55;1.50;;;14.30;99.90;;;;;;5045086;28;20706;-75
2022/09/02 01:52:22;;;;;;;1.67;1.33;;;14.30;99.90;;;;;;5031446;28;20041;-75
2022/09/02 01:54:48;;;;;;;3.58;1.60;;;14.30;99.90;;;;;;5046204;28;20066;-75
2022/09/02 01:57:14;;;;;;;3.45;1.60;;;14.20;99.90;;;;;;5064218;28;20056;-76
2022/09/02 01:59:42;;;;;;;2.28;1.33;;;14.30;99.90;;;;;;5042389;28;20041;-74
2022/09/02 02:02:08;;;;;;;1.88;1.60;;;14.30;99.90;;;;;;5032714;28;20036;-75
2022/09/02 02:04:34;;;;;;;1.73;1.38;;;14.30;99.90;;;;;;5060309;28;20126;-76
2022/09/02 02:06:59;;;;;;;2.85;1.52;;;14.20;99.90;;;;;;5035216;28;20144;-74
2022/09/02 02:09:25;;;;;;;5.05;1.50;;;14.20;99.90;;;;;;5039657;28;20116;-76
2022/09/02 02:11:51;;;;;;;3.20;1.55;;;14.20;99.90;;;;;;5044807;28;20121;-75
2022/09/02 02:14:17;;;;;;;3.42;1.50;;;14.20;99.90;;;;;;5058237;28;20052;-75
2022/09/02 02:16:43;;;;;;;4.22;1.50;;;14.10;99.90;;;;;;5044553;28;20037;-75
2022/09/02 02:19:09;;;;;;;2.92;1.52;;;14.10;99.90;;;;;;5040864;28;20044;-75
2022/09/02 02:21:34;;;;;;;3.63;1.30;;;14.00;99.90;;;;;;5031567;28;20044;-75
2022/09/02 02:24:00;;;;;;;3.35;1.70;;;14.00;99.90;;;;;;5045297;28;20144;-75
2022/09/02 02:26:27;;;;;;;2.75;1.42;;;14.00;99.90;;;;;;5029151;28;20475;-76
2022/09/02 02:28:53;;;;;;;3.70;1.58;;;14.00;99.90;;;;;;5042831;28;20029;-75
2022/09/02 02:31:19;;;;;;;3.35;1.60;;;14.00;99.90;;;;;;5058996;28;20045;-75
2022/09/02 02:33:46;;;;;;;8.43;1.40;;;14.00;99.90;;;;;;5059008;28;20055;-74
2022/09/02 02:36:12;;;;;;;2.67;1.30;;;13.90;99.90;;;;;;5034122;28;20042;-75
2022/09/02 02:38:39;;;;;;;2.03;1.25;;;14.00;99.90;;;;;;5030221;28;20045;-76
2022/09/02 02:41:06;;;;;;;2.08;1.40;;;14.00;99.90;;;;;;5029489;28;20127;-75
2022/09/02 02:43:34;;;;;;;5.95;1.50;;;14.00;99.90;;;;;;5038179;28;20038;-75
2022/09/02 02:45:59;;;;;;;2.03;1.33;;;14.00;99.90;;;;;;5058160;28;20052;-75
2022/09/02 02:48:25;;;;;;;8.57;1.20;;;13.90;99.90;;;;;;5043877;28;20052;-76
2022/09/02 02:50:51;;;;;;;4.10;1.25;;;13.90;99.90;;;;;;5058744;28;20044;-75
2022/09/02 02:53:17;;;;;;;1.30;1.20;;;13.80;99.90;;;;;;5043369;28;20159;-75
2022/09/02 02:55:43;;;;;;;2.78;1.45;;;13.80;99.90;;;;;;5028390;28;20116;-76
2022/09/02 02:58:09;;;;;;;2.40;1.30;;;13.90;99.90;;;;;;5040436;28;20119;-75
2022/09/02 03:00:36;;;;;;;2.08;1.23;;;13.80;99.90;;;;;;5027810;28;20053;-76
2022/09/02 03:03:13;;;;;;;3.72;1.40;;;13.80;99.90;;;;;;5044705;28;20045;-76
2022/09/02 03:05:39;;;;;;;6.07;1.42;;;13.80;99.90;;;;;;5054041;28;20057;-76
2022/09/02 03:08:08;;;;;;;2.45;1.40;;;13.80;99.90;;;;;;5048140;28;20060;-77
2022/09/02 03:10:33;;;;;;;8.68;1.38;;;13.80;99.90;;;;;;5050424;28;20598;-75
2022/09/02 03:13:00;;;;;;;4.80;1.50;;;13.80;99.90;;;;;;5058690;28;20041;-75
2022/09/02 03:15:27;;;;;;;2.55;1.30;;;13.80;99.90;;;;;;5021062;28;20044;-77
2022/09/02 03:17:54;;;;;;;1.48;1.13;;;13.60;99.90;;;;;;5048053;28;21694;-77
2022/09/02 03:20:20;;;;;;;3.53;1.30;;;13.70;99.90;;;;;;5044101;28;22574;-76
2022/09/02 03:22:47;;;;;;;4.53;1.40;;;13.70;99.90;;;;;;5043704;28;20045;-76
2022/09/02 03:25:15;;;;;;;4.60;1.25;;;13.70;99.90;;;;;;5060378;28;20131;-77
2022/09/02 03:27:44;;;;;;;1.85;1.40;;;13.70;99.90;;;;;;5028333;28;20171;-77
2022/09/02 03:30:16;;;;;;;5.22;1.15;;;13.70;99.90;;;;;;5045467;28;20116;-76
2022/09/02 03:32:42;;;;;;;4.97;1.30;;;13.60;99.90;;;;;;5049470;28;20041;-76
2022/09/02 03:35:11;;;;;;;5.60;1.50;;;13.60;99.90;;;;;;5060799;28;20029;-76
2022/09/02 03:37:37;;;;;;;2.90;1.42;;;13.60;99.90;;;;;;5047270;28;20087;-76
2022/09/02 03:40:09;;;;;;;3.67;1.05;;;13.50;99.90;;;;;;5032396;28;20476;-77
2022/09/02 03:42:35;;;;;;;6.47;2.00;;;13.50;99.90;;;;;;5039932;28;20049;-77
2022/09/02 03:45:04;;;;;;;4.95;1.25;;;13.60;99.90;;;;;;5030562;28;20035;-76
2022/09/02 03:47:29;;;;;;;1.75;1.30;;;13.50;99.90;;;;;;5059429;28;20049;-77
2022/09/02 03:49:56;;;;;;;2.42;1.50;;;13.40;99.90;;;;;;5030455;28;20416;-76
2022/09/02 03:52:23;;;;;;;3.90;1.17;;;13.40;99.90;;;;;;5023405;28;20038;-76
2022/09/02 03:54:52;;;;;;;2.42;1.35;;;13.40;99.90;;;;;;5042549;28;20128;-77
2022/09/02 03:57:19;;;;;;;2.67;1.50;;;13.40;99.90;;;;;;5023007;28;20056;-77
2022/09/02 03:59:45;;;;;;;3.80;1.50;;;13.40;99.90;;;;;;5039730;28;20353;-76
2022/09/02 04:02:11;;;;;;;2.30;1.50;;;13.30;99.90;;;;;;5042727;28;20037;-76
2022/09/02 04:04:36;;;;;;;2.65;1.50;;;13.40;99.90;;;;;;5023513;28;20369;-76
2022/09/02 04:07:02;;;;;;;2.53;1.52;;;13.30;99.90;;;;;;5050324;28;20037;-77
2022/09/02 04:09:28;;;;;;;2.53;1.52;;;13.20;99.90;;;;;;5041004;28;20120;-76
2022/09/02 04:11:54;;;;;;;3.85;1.60;;;13.10;99.90;;;;;;5028582;28;20481;-76
2022/09/02 04:14:19;;;;;;;2.53;1.67;;;13.10;99.90;;;;;;5041800;28;20037;-76
2022/09/02 04:16:45;;;;;;;3.58;1.35;;;13.10;99.90;;;;;;5023273;28;20488;-76
2022/09/02 04:19:12;;;;;;;1.90;1.60;;;13.10;99.90;;;;;;5042755;28;20057;-76
2022/09/02 04:21:39;;;;;;;2.10;1.70;;;13.10;99.90;;;;;;5042511;28;20049;-76
2022/09/02 04:24:08;;;;;;;2.95;1.50;;;13.10;99.90;;;;;;5040737;28;20506;-77
2022/09/02 04:26:35;;;;;;;3.72;1.60;;;13.00;99.90;;;;;;5063631;28;20110;-77
2022/09/02 04:29:03;;;;;;;1.52;1.30;;;13.00;99.90;;;;;;5030684;28;20490;-77
2022/09/02 04:31:30;;;;;;;4.40;2.00;;;13.10;99.90;;;;;;5044161;28;20111;-75
2022/09/02 04:33:57;;;;;;;4.20;1.67;;;13.10;99.90;;;;;;5073912;28;20387;-77
2022/09/02 04:37:00;;;;;;;3.13;1.90;;;13.00;99.90;;;;;;5048388;28;20045;-75
2022/09/02 04:39:25;;;;;;;3.85;1.60;;;13.00;99.90;;;;;;5047445;28;20042;-76
2022/09/02 04:41:52;;;;;;;5.85;1.70;;;13.00;99.90;;;;;;5011944;28;20043;-76
2022/09/02 04:44:18;;;;;;;2.08;1.60;;;12.90;99.90;;;;;;5056215;28;20033;-77
2022/09/02 04:46:44;;;;;;;3.55;1.60;;;12.90;99.90;;;;;;5014777;28;20044;-76
2022/09/02 04:49:10;;;;;;;1.63;1.40;;;13.00;99.90;;;;;;5063200;28;20040;-76
2022/09/02 04:51:36;;;;;;;3.42;1.65;;;12.90;99.90;;;;;;5028035;28;20043;-76
2022/09/02 04:54:06;;;;;;;4.22;1.65;;;12.90;99.90;;;;;;5042671;28;20052;-76
2022/09/02 04:56:32;;;;;;;3.75;1.50;;;12.90;99.90;;;;;;5040722;28;20099;-77
2022/09/02 04:58:58;;;;;;;3.08;1.77;;;12.90;99.90;;;;;;5026501;28;20473;-76
2022/09/02 05:01:27;;;;;;;2.35;1.30;;;13.00;99.90;;;;;;5042609;28;20143;-76
2022/09/02 05:03:54;;;;;;;2.45;1.50;;;13.00;99.90;;;;;;5064086;28;20036;-76
2022/09/02 05:06:22;;;;;;;4.75;1.60;;;13.10;99.90;;;;;;5030704;28;20444;-76
2022/09/02 05:08:48;;;;;;;2.72;1.60;;;13.00;99.90;;;;;;5019437;28;20045;-75
2022/09/02 05:11:19;;;;;;;2.17;1.60;;;13.00;99.90;;;;;;5040592;28;20320;-77
2022/09/02 05:13:52;;;;;;;5.40;1.60;;;13.10;99.90;;;;;;5033750;28;20052;-80
2022/09/02 05:16:22;;;;;;;2.85;1.70;;;13.10;99.90;;;;;;5012054;28;20041;-80
2022/09/02 05:18:49;;;;;;;3.67;1.60;;;13.00;99.90;;;;;;5047710;28;20033;-79
2022/09/02 05:21:15;;;;;;;4.30;1.80;;;13.10;99.90;;;;;;5030043;28;20095;-80
2022/09/02 05:23:42;;;;;;;3.25;1.67;;;13.20;99.90;;;;;;5034645;28;20409;-83
2022/09/02 05:26:09;;;;;;;5.68;1.70;;;13.20;99.90;;;;;;5050946;28;20116;-78
2022/09/02 05:28:35;;;;;;;5.63;1.80;;;13.20;99.90;;;;;;5025144;28;20095;-79
2022/09/02 05:31:11;;;;;;;4.65;1.80;;;13.20;99.90;;;;;;5016519;28;20979;-78
2022/09/02 05:33:39;;;;;;;3.20;1.80;;;13.20;99.90;;;;;;5028662;28;20048;-80
2022/09/02 05:36:06;;;;;;;3.45;1.50;;;13.20;99.90;;;;;;5056579;28;20830;-79
2022/09/02 05:38:33;;;;;;;6.55;1.88;;;13.40;99.90;;;;;;5023727;28;20351;-80
2022/09/02 05:41:07;;;;;;;2.50;1.63;;;13.30;99.90;;;;;;5030694;28;20041;-81
2022/09/02 05:43:37;;;;;;;5.65;1.70;;;13.40;99.90;;;;;;5042619;28;20135;-84
2022/09/02 05:46:08;;;;;;;2.70;1.60;;;13.40;99.90;;;;;;5043626;28;20060;-83
2022/09/02 05:51:21;;;;;;;2.95;1.58;;;13.50;99.90;;;;;;5052722;28;20053;-81
2022/09/02 05:53:50;;;;;;;4.30;1.80;;;13.60;99.90;;;;;;5047535;28;20032;-81
2022/09/02 05:56:16;;;;;;;5.53;1.95;;;13.60;99.90;;;;;;5064624;28;20107;-82
2022/09/02 05:58:41;;;;;;;2.90;1.80;;;13.50;99.90;;;;;;5066346;28;20045;-81
2022/09/02 06:01:09;;;;;;;2.22;1.85;;;13.60;99.90;;;;;;5058179;28;20061;-82
2022/09/02 06:03:35;;;;;;;2.30;1.80;;;13.60;99.90;;;;;;5047982;28;20369;-83
2022/09/02 06:06:03;;;;;;;9.50;1.70;;;13.70;99.90;;;;;;5029466;28;20053;-82
2022/09/02 06:08:29;;;;;;;3.25;1.67;;;13.70;99.90;;;;;;5047704;28;20480;-81
2022/09/02 06:10:55;;;;;;;8.00;1.85;;;13.80;99.90;;;;;;5025765;28;20060;-82
2022/09/02 06:13:21;;;;;;;2.22;1.80;;;13.90;99.90;;;;;;5057202;28;20045;-84
2022/09/02 06:15:48;;;;;;;5.47;1.55;;;13.90;99.90;;;;;;5029119;28;20056;-86
2022/09/02 06:18:15;;;;;;;5.95;1.98;;;14.00;99.90;;;;;;5038989;28;20053;-86
2022/09/02 06:24:22;;;;;;;3.30;1.90;;;14.00;99.90;;;;;;5045615;28;20052;-83
2022/09/02 06:26:48;;;;;;;7.25;1.83;;;14.10;99.90;;;;;;5046425;28;20068;-83
2022/09/02 06:29:14;;;;;;;7.18;2.03;;;14.10;99.90;;;;;;5042797;28;20082;-81
2022/09/02 06:31:42;;;;;;;5.78;1.80;;;14.10;99.90;;;;;;5057471;28;20045;-83
2022/09/02 06:34:09;;;;;;;3.85;1.70;;;14.10;99.90;;;;;;5046086;28;20033;-75
2022/09/02 06:36:35;;;;;;;4.15;1.75;;;14.30;99.90;;;;;;5029234;28;20056;-75
2022/09/02 06:39:04;;;;;;;3.17;1.85;;;14.30;99.90;;;;;;5045991;28;20044;-75
2022/09/02 06:41:32;;;;;;;4.68;2.00;;;14.30;99.90;;;;;;5064137;28;20041;-77
2022/09/02 06:44:01;;;;;;;4.85;1.80;;;14.30;99.90;;;;;;5065471;28;20037;-77
2022/09/02 06:46:30;;;;;;;3.83;1.60;;;14.40;99.90;;;;;;5036487;28;20098;-78
2022/09/02 06:48:56;;;;;;;5.07;1.90;;;14.50;99.90;;;;;;5049016;28;20108;-79
2022/09/02 06:51:34;;;;;;;4.50;1.85;;;14.50;99.90;;;;;;5034196;28;20121;-77
2022/09/02 06:54:01;;;;;;;6.47;1.92;;;14.50;99.90;;;;;;5060772;28;20531;-76
2022/09/02 06:56:27;;;;;;;7.22;1.88;;;14.60;99.90;;;;;;5063710;28;20041;-78
2022/09/02 06:58:54;;;;;;;4.70;2.00;;;14.70;99.90;;;;;;5039802;28;20044;-79
2022/09/02 07:01:25;;;;;;;6.72;1.77;;;14.70;99.90;;;;;;5035988;28;20068;-75
2022/09/02 07:06:38;;;;;;;4.40;1.95;;;14.90;99.90;;;;;;5058526;28;20175;-75
2022/09/02 07:09:05;;;;;;;4.45;1.90;;;14.90;99.90;;;;;;5065046;28;20719;-77
2022/09/02 07:11:32;;;;;;;3.97;1.75;;;15.00;99.90;;;;;;5054072;28;20327;-78
2022/09/02 07:14:04;;;;;;;2.40;1.80;;;15.00;99.90;;;;;;5055581;28;20534;-75
2022/09/02 07:16:34;;;;;;;2.88;1.63;;;15.10;99.90;;;;;;5035195;28;20075;-75
2022/09/02 07:19:00;;;;;;;3.72;1.95;;;15.20;99.90;;;;;;5050117;28;20110;-77
2022/09/02 07:21:29;;;;;;;4.35;1.80;;;15.30;99.90;;;;;;5054593;28;20044;-78
2022/09/02 07:23:58;;;;;;;8.88;2.50;;;15.30;99.90;;;;;;5036254;28;20069;-75
2022/09/02 07:26:25;;;;;;;6.65;2.30;;;15.40;99.90;;;;;;5036129;28;20024;-77
2022/09/02 07:28:51;;;;;;;3.95;1.80;;;15.50;99.90;;;;;;5034124;28;20036;-79
2022/09/02 07:31:17;;;;;;;8.07;1.85;;;15.60;99.90;;;;;;5048179;28;20032;-75
2022/09/02 07:33:44;;;;;;;7.55;1.92;;;15.60;99.90;;;;;;5056657;28;20120;-77
2022/09/02 07:36:11;;;;;;;4.10;1.70;;;15.70;99.90;;;;;;5039829;28;20036;-77
2022/09/02 07:38:39;;;;;;;4.80;2.00;;;15.70;99.90;;;;;;5052486;28;20127;-78
2022/09/02 07:41:05;;;;;;;4.72;1.83;;;15.80;99.90;;;;;;5037440;28;20058;-77
2022/09/02 07:43:34;;;;;;;6.47;2.10;;;16.00;99.90;;;;;;5061456;28;20460;-77
2022/09/02 07:46:04;;;;;;;2.47;1.50;;;16.10;99.90;;;;;;5033699;28;20499;-81
2022/09/02 07:48:31;;;;;;;3.03;1.83;;;16.20;99.90;;;;;;5032239;28;20032;-80
2022/09/02 07:50:57;;;;;;;5.40;1.73;;;16.30;99.90;;;;;;5031577;28;20049;-76
2022/09/02 07:53:24;;;;;;;5.35;1.85;;;16.40;99.90;;;;;;5036141;28;20040;-75
2022/09/02 07:55:49;;;;;;;3.88;1.73;;;16.50;99.90;;;;;;5011789;28;20106;-77
2022/09/02 07:58:17;;;;;;;3.85;1.58;;;16.70;99.90;;;;;;5042298;28;20515;-75
2022/09/02 08:00:43;;;;;;;4.00;1.95;;;16.80;99.90;;;;;;5049210;28;20364;-75
2022/09/02 08:03:10;;;;;;;6.03;1.42;;;16.80;99.90;;;;;;5034370;28;20045;-76
2022/09/02 08:05:37;;;;;;;5.57;1.60;;;16.90;99.90;;;;;;5067790;28;20055;-77
2022/09/02 08:08:03;;;;;;;5.07;1.60;;;17.00;99.90;;;;;;5066620;28;20510;-77
2022/09/02 08:10:30;;;;;;;6.47;1.80;;;17.20;99.90;;;;;;5065601;28;20033;-77
2022/09/02 08:12:59;;;;;;;4.05;1.60;;;17.30;99.90;;;;;;5014011;28;20350;-76
2022/09/02 08:15:27;;;;;;;13.75;2.03;;;17.40;99.90;;;;;;5034842;28;20037;-76
2022/09/02 08:17:54;;;;;;;3.53;1.58;;;17.50;99.90;;;;;;5050939;28;20052;-76
2022/09/02 08:20:20;;;;;;;6.35;1.52;;;17.60;99.90;;;;;;5065828;28;20044;-77
2022/09/02 08:22:46;;;;;;;2.85;1.52;;;17.70;99.90;;;;;;5065117;28;20049;-77
2022/09/02 08:25:12;;;;;;;4.15;1.73;;;17.90;99.90;;;;;;5066631;28;20029;-76
2022/09/02 08:27:39;;;;;;;5.72;1.58;;;17.90;99.90;;;;;;5016842;28;20045;-77
2022/09/02 08:30:10;;;;;;;4.13;1.75;;;18.00;99.90;;;;;;5048036;28;20041;-77
2022/09/02 08:32:37;;;;;;;2.17;1.60;;;18.00;99.90;;;;;;5023859;28;20086;-76
2022/09/02 08:35:04;;;;;;;6.53;1.60;;;18.10;99.90;;;;;;5067301;28;20041;-78
2022/09/02 08:37:31;;;;;;;2.83;1.27;;;18.30;99.90;;;;;;5067498;28;20415;-77
2022/09/02 08:39:57;;;;;;;4.90;1.60;;;18.30;99.90;;;;;;5034486;28;20155;-76
2022/09/02 08:42:32;;;;;;;5.50;1.80;;;18.40;99.90;;;;;;5051375;28;20040;-75
2022/09/02 08:45:03;;;;;;;;;;;18.60;99.90;;;;;;5036620;28;20427;-75
2022/09/02 08:47:32;;;;;;;4.63;1.60;;;18.60;99.90;;;;;;5056848;28;19920;-77
2022/09/02 08:50:09;;;;;;;6.55;1.60;;;18.80;99.90;;;;;;5037559;28;20535;-76
2022/09/02 08:52:40;;;;;;;6.95;2.22;;;18.90;99.90;;;;;;5053532;28;20429;-77
2022/09/02 08:55:16;;;;;;;7.45;1.55;;;19.00;99.90;;;;;;5046514;28;20033;-76
2022/09/02 08:57:43;;;;;;;3.95;1.60;;;19.00;99.90;;;;;;5015042;28;20053;-76
2022/09/02 09:00:09;;;;;;;6.32;1.85;;;19.20;99.90;;;;;;5051695;28;20380;-77
2022/09/02 09:03:03;;;;;;;7.60;1.52;;;19.20;99.90;;;;;;5049979;28;20048;-77
2022/09/02 09:05:58;;;;;;;4.15;1.52;;;19.30;99.90;;;;;;5034809;28;20091;-77
2022/09/02 09:08:39;;;;;;;1.75;1.45;;;19.40;99.90;;;;;;5048735;28;20043;-76
2022/09/02 09:11:28;;;;;;;6.65;1.63;;;19.40;99.90;;;;;;5048302;28;20044;-76
2022/09/02 09:14:29;;;;;;;4.63;2.00;;;19.60;99.90;;;;;;5048901;28;20457;-75
2022/09/02 09:16:59;;;;;;;7.68;1.50;;;19.70;99.90;;;;;;5028422;28;20154;-77
2022/09/02 09:19:52;;;;;;;2.08;1.50;;;19.70;99.90;;;;;;5002999;28;20054;-76
2022/09/02 09:22:23;;;;;;;5.70;1.30;;;19.90;99.90;;;;;;4996529;28;20049;-77
2022/09/02 09:24:49;;;;;;;5.80;1.60;;;20.10;99.90;;;;;;4996105;28;20033;-76
2022/09/02 09:27:19;;;;;;;5.68;1.67;;;20.20;99.90;;;;;;5026625;28;20060;-76
2022/09/02 09:29:45;;;;;;;3.17;1.63;;;20.30;99.90;;;;;;5026723;28;20045;-77
2022/09/02 09:32:13;;;;;;;3.67;1.40;;;20.30;99.90;;;;;;5011563;28;20040;-77
2022/09/02 09:34:51;;;;;;;8.18;1.65;;;20.40;99.90;;;;;;5012580;28;20046;-77
2022/09/02 09:37:35;;;;;;;4.90;1.55;;;20.50;99.90;;;;;;5028504;28;20041;-77
2022/09/02 09:40:21;;;;;;;2.15;1.30;;;20.70;99.90;;;;;;5010819;28;20111;-76
2022/09/02 09:42:47;;;;;;;4.28;1.30;;;20.80;99.60;;;;;;5007897;28;20034;-75
2022/09/02 09:45:33;;;;;;;3.75;1.20;;;20.90;99.90;;;;;;5009759;28;20042;-77
2022/09/02 09:48:17;;;;;;;6.63;1.48;;;21.00;99.40;;;;;;5009583;28;20053;-76
2022/09/02 09:50:47;;;;;;;1.95;1.20;;;21.10;99.00;;;;;;5004334;28;20034;-76
2022/09/02 09:53:31;;;;;;;4.68;1.52;;;21.20;99.20;;;;;;5018305;28;20131;-76
2022/09/02 09:56:04;;;;;;;3.27;1.40;;;21.40;98.50;;;;;;5053483;28;20509;-77
2022/09/02 09:58:39;;;;;;;2.47;1.13;;;21.50;99.00;;;;;;5039397;28;20485;-77
2022/09/02 10:01:22;;;;;;;1.80;1.10;;;21.60;97.90;;;;;;5032933;28;20053;-78
2022/09/02 10:03:49;;;;;;;5.50;1.30;;;21.60;97.60;;;;;;5050694;28;20043;-78
2022/09/02 10:10:16;;;;;;;5.50;1.33;;;21.90;96.60;;;;;;5053193;28;20090;-78
2022/09/02 10:12:44;;;;;;;6.43;1.35;;;22.00;96.70;;;;;;5043893;28;20032;-75
2022/09/02 10:15:10;;;;;;;2.47;1.17;;;22.10;96.60;;;;;;5032022;28;20064;-76
2022/09/02 10:17:54;;;;;;;4.57;1.20;;;22.30;96.20;;;;;;5053712;28;20064;-76
2022/09/02 10:20:49;;;;;;;4.95;1.33;;;22.30;96.20;;;;;;5028201;28;20037;-77
2022/09/02 10:23:27;;;;;;;3.38;1.48;;;22.50;96.50;;;;;;5052300;28;20060;-77
2022/09/02 10:26:07;;;;;;;4.25;1.15;;;22.70;96.00;;;;;;5041520;28;20059;-77
2022/09/02 10:28:59;;;;;;;3.70;1.08;;;23.00;95.30;;;;;;5054334;28;20036;-75
2022/09/02 10:32:03;;;;;;;3.50;1.10;;;23.10;95.20;;;;;;5017025;28;20041;-75
2022/09/02 10:35:02;;;;;;;5.43;1.10;;;23.20;95.20;;;;;;5054695;28;20053;-77
2022/09/02 10:37:59;;;;;;;2.97;1.25;;;23.40;94.60;;;;;;5032618;28;20053;-80
2022/09/02 10:40:36;;;;;;;3.92;1.30;;;23.50;94.20;;;;;;5009027;28;20047;-80
2022/09/02 10:43:05;;;;;;;2.97;1.13;;;23.60;93.90;;;;;;5005703;28;20071;-80
2022/09/02 10:45:49;;;;;;;4.07;1.30;;;23.70;94.50;;;;;;4989120;28;20057;-80
2022/09/02 10:48:29;;;;;;;5.32;1.20;;;23.90;95.10;;;;;;5015407;28;20045;-79
2022/09/02 10:54:52;;;;;;;3.67;1.10;;;24.40;94.80;;;;;;5030539;28;20067;-77
2022/09/02 10:57:43;;;;;;;5.88;1.02;;;24.90;93.70;;;;;;4958486;28;20063;-76
2022/09/02 11:00:15;;;;;;;4.20;1.10;;;25.00;92.20;;;;;;4974552;28;20371;-78
2022/09/02 11:02:44;;;;;;;7.72;1.38;;;25.20;91.90;;;;;;4956052;28;20038;-77
2022/09/02 11:05:38;;;;;;;7.18;0.98;;;25.20;92.20;;;;;;4941517;28;20051;-77
2022/09/02 11:08:23;;;;;;;7.50;1.20;;;25.30;92.00;;;;;;4952626;28;20047;-78
2022/09/02 11:11:13;;;;;;;4.30;0.98;;;25.20;91.40;;;;;;4961021;28;20050;-77
2022/09/02 11:13:51;;;;;;;4.60;1.40;;;25.30;91.80;;;;;;4955399;28;20081;-78
2022/09/02 11:16:40;;;;;;;3.13;1.00;;;25.40;92.50;;;;;;4959575;28;20074;-78
2022/09/02 11:19:22;;;;;;;3.13;1.00;;;25.60;91.60;;;;;;4996328;28;20049;-78
2022/09/02 11:22:06;;;;;;;2.65;0.98;;;25.90;90.90;;;;;;4970732;28;20187;-79
2022/09/02 11:24:48;;;;;;;5.68;1.10;;;26.00;90.90;;;;;;5016984;28;20173;-78
2022/09/02 11:27:30;;;;;;;5.85;1.17;;;26.00;90.80;;;;;;4993532;28;20068;-79
2022/09/02 11:29:55;;;;;;;3.80;1.00;;;26.00;90.60;;;;;;5007362;28;20061;-79
2022/09/02 11:33:00;;;;;;;5.15;1.27;;;25.90;90.30;;;;;;4995408;28;20113;-78
2022/09/02 11:35:36;;;;;;;6.13;0.88;;;26.30;89.30;;;;;;4998079;28;20064;-77
2022/09/02 11:38:08;;;;;;;7.20;1.17;;;26.20;88.20;;;;;;5006253;28;20149;-78
2022/09/02 11:41:07;;;;;;;2.20;0.90;;;26.20;89.70;;;;;;5004854;28;20140;-77
2022/09/02 11:44:16;;;;;;;5.05;1.00;;;26.40;90.30;;;;;;4988614;28;20120;-79
2022/09/02 11:47:16;;;;;;;1.88;0.85;;;26.30;88.20;;;;;;5010898;28;20531;-78
2022/09/02 11:50:04;;;;;;;3.05;1.00;;;26.60;88.70;;;;;;5007652;28;20300;-77
2022/09/02 11:53:04;;;;;;;5.63;1.20;;;26.60;88.60;;;;;;4985856;28;20146;-79
2022/09/02 11:55:38;;;;;;;3.38;1.00;;;26.60;88.30;;;;;;4991197;28;20074;-78
2022/09/02 11:58:04;;;;;;;;;;;26.70;88.40;;;;;;5001821;28;20116;-79
2022/09/02 12:00:54;;;;;;;2.72;1.10;;;26.90;87.80;;;;;;4992351;28;20311;-77
2022/09/02 12:03:30;;;;;;;8.40;1.48;;;27.00;88.20;;;;;;4989942;28;20156;-78
2022/09/02 12:06:13;;;;;;;4.88;1.42;;;27.20;88.00;;;;;;5007014;28;20049;-78
2022/09/02 12:08:39;;;;;;;8.70;1.35;;;27.30;87.30;;;;;;5005573;28;20123;-78
2022/09/02 12:11:06;;;;;;;3.03;1.00;;;27.30;87.50;;;;;;4990609;28;20128;-79
2022/09/02 12:13:47;;;;;;;1.30;0.95;;;27.50;87.40;;;;;;5027752;28;20052;-79
2022/09/02 12:16:18;;;;;;;6.50;1.35;;;27.70;86.50;;;;;;5030717;28;20040;-77
2022/09/02 12:18:43;;;;;;;6.00;1.50;;;27.70;86.70;;;;;;5063860;28;20235;-78
2022/09/02 12:21:13;;;;;;;5.53;1.20;;;27.80;86.40;;;;;;5031045;28;20487;-78
2022/09/02 12:23:51;;;;;;;1.60;1.10;;;27.90;87.10;;;;;;5026153;28;20401;-79
2022/09/02 12:26:43;;;;;;;6.00;1.15;;;28.10;85.30;;;;;;5060079;28;20384;-79
2022/09/02 12:29:18;;;;;;;6.82;1.10;;;28.20;84.60;;;;;;5010490;28;20053;-79
2022/09/02 12:31:51;;;;;;;4.28;1.27;;;28.60;84.10;;;;;;5031609;28;20471;-81
2022/09/02 12:34:21;;;;;;;3.80;1.20;;;28.40;82.30;;;;;;5045592;28;20068;-78
2022/09/02 12:36:52;;;;;;;2.40;1.00;;;28.50;82.90;;;;;;5046589;28;20095;-80
2022/09/02 12:39:24;;;;;;;8.13;1.00;;;28.40;82.30;;;;;;5031339;28;20041;-80
2022/09/02 12:42:11;;;;;;;7.45;1.40;;;28.30;82.20;;;;;;5033553;28;20044;-79
2022/09/02 12:44:58;;;;;;;1.75;0.93;;;28.20;80.70;;;;;;5052774;28;20067;-79
2022/09/02 12:47:39;;;;;;;5.00;1.20;;;28.40;80.80;;;;;;5068044;28;20045;-79
2022/09/02 12:50:05;;;;;;;4.40;0.82;;;28.30;80.60;;;;;;5058722;28;20492;-79
2022/09/02 12:56:12;;;;;;;7.05;1.15;;;28.70;81.20;;;;;;5048360;28;20052;-78
2022/09/02 12:58:44;;;;;;;1.40;0.77;;;29.20;80.90;;;;;;5053721;28;20037;-79
2022/09/02 13:01:31;;;;;;;;;;;29.10;78.40;;;;;;5049575;28;20485;-79
2022/09/02 13:04:36;;;;;;;7.43;1.30;;;29.10;79.00;;;;;;5050285;28;20327;-80
2022/09/02 13:07:42;;;;;;;5.70;1.20;;;29.20;78.00;;;;;;5053274;28;20049;-80
2022/09/02 13:10:30;;;;;;;2.40;0.90;;;29.20;77.50;;;;;;5043840;28;20120;-78
2022/09/02 13:13:14;;;;;;;4.18;0.90;;;29.40;77.00;;;;;;5043424;28;20045;-80
2022/09/02 13:16:14;;;;;;;1.48;0.95;;;29.40;77.00;;;;;;5028836;28;20032;-79
2022/09/02 13:18:59;;;;;;;1.75;1.00;;;29.40;77.10;;;;;;5059881;28;20056;-79
2022/09/02 13:21:51;;;;;;;2.75;1.10;;;29.70;77.60;;;;;;5046782;28;20400;-80
2022/09/02 13:24:53;;;;;;;4.00;0.90;;;29.80;76.60;;;;;;5044544;28;20392;-80
2022/09/02 13:27:35;;;;;;;2.92;0.90;;;29.90;75.10;;;;;;5021143;28;20061;-82
2022/09/02 13:30:42;;;;;;;4.78;1.00;;;29.60;76.10;;;;;;5021855;28;20140;-83
2022/09/02 13:33:10;;;;;;;1.88;0.90;;;29.60;74.80;;;;;;5004962;28;20475;-82